Falfurrias, TX

7:23 PM CST on November 19, 2019 (GMT -0600)
Falfurrias

Weather History for KBKS - August, 2019

Change the Weather History Date:

Sunday, August 11, 2019

  Actual Average (WUND) Record (WUND)
Temperature  
Mean Temperature 92 °F -  
Max Temperature 105 °F - - (-1)
Min Temperature 80 °F - - (-1)
Cooling Degree Days 27    
Growing Degree Days 42 (Base 50)    
Moisture  
Dew Point 75 °F    
Average Humidity 65    
Maximum Humidity 91    
Minimum Humidity 30    
Precipitation  
Precipitation 0.00 in - - ()
Sea Level Pressure  
Sea Level Pressure 29.92 in    
Wind  
Wind Speed 7 mph ()    
Max Wind Speed 20 mph    
Max Gust Speed 25 mph    
Visibility 9.8 miles    
Events      
Averages and records for this station are not official NWS values.
T = Trace of Precipitation, MM = Missing Value Source: Averaged Metar Reports

Daily Weather History Graph

Daily Weather History Graph

Search for Another Location

Airport or City:

Astronomy

Aug. 11, 2019 Rise Set
Actual Time 7:01 AM CDT 8:13 PM CDT
Civil Twilight 6:36 AM CDT 8:38 PM CDT
Nautical Twilight 6:07 AM CDT 9:07 PM CDT
Astronomical Twilight 5:37 AM CDT 9:37 PM CDT
Moon 5:41 PM CDT (8/11) 3:34 AM CDT (8/11)
Length of Visible Light 14h 01m
Length of Day
13h 11m
Waxing Gibbous, 87% of the Moon is Illuminated
Aug 11
Waxing Gibbous
Aug 15
Full
Aug 23
Last Quarter
Aug 30
New
Sep 5
First Quarter

Hourly Weather History & Observations

Time (CDT) Temp. Heat Index Dew Point Humidity Pressure Visibility Wind Dir Wind Speed Gust Speed Precip Events Conditions
12:15 AM 83.7 °F 93.4 °F 77.4 °F 81% 29.96 in 10.0 mi SE 4.6 mph - N/A   Clear
12:35 AM 83.7 °F 93.8 °F 77.5 °F 82% 29.96 in 10.0 mi SE 4.6 mph - N/A   Scattered Clouds
12:55 AM 83.5 °F 93.6 °F 77.9 °F 83% 29.95 in 10.0 mi SE 4.6 mph - N/A   Scattered Clouds
1:15 AM 82.9 °F 92.1 °F 77.4 °F 83% 29.94 in 10.0 mi Calm Calm - N/A   Clear
1:35 AM 82.4 °F 91.2 °F 77.4 °F 85% 29.94 in 10.0 mi SE 3.5 mph - N/A   Clear
1:55 AM 82.0 °F 90.2 °F 77.2 °F 85% 29.94 in 10.0 mi East 3.5 mph - N/A   Mostly Cloudy
2:15 AM 81.7 °F 89.7 °F 77.4 °F 87% 29.94 in 10.0 mi East 3.5 mph - N/A   Mostly Cloudy
2:35 AM 81.5 °F 89.2 °F 77.2 °F 87% 29.93 in 10.0 mi Calm Calm - N/A   Mostly Cloudy
2:55 AM 81.5 °F 89.2 °F 77.4 °F 87% 29.93 in 10.0 mi East 3.5 mph - N/A   Mostly Cloudy
3:15 AM 81.7 °F 89.7 °F 77.5 °F 87% 29.93 in 10.0 mi East 3.5 mph - N/A   Mostly Cloudy
3:35 AM 81.9 °F 90.2 °F 77.5 °F 87% 29.93 in 10.0 mi Calm Calm - N/A   Overcast
3:55 AM 81.9 °F 90.2 °F 77.5 °F 87% 29.93 in 10.0 mi Calm Calm - N/A   Overcast
4:15 AM 81.9 °F 90.5 °F 77.9 °F 88% 29.93 in 10.0 mi Calm Calm - N/A   Mostly Cloudy
4:35 AM 81.9 °F 90.5 °F 77.9 °F 88% 29.93 in 10.0 mi ESE 3.5 mph - N/A   Scattered Clouds
4:55 AM 81.7 °F 90.0 °F 77.9 °F 88% 29.93 in 10.0 mi ESE 4.6 mph - N/A   Scattered Clouds
5:15 AM 81.9 °F 90.5 °F 78.1 °F 88% 29.93 in 10.0 mi ESE 4.6 mph - N/A   Clear
5:35 AM 81.7 °F 90.2 °F 78.1 °F 89% 29.93 in 10.0 mi ESE 4.6 mph - N/A   Clear
5:55 AM 81.5 °F 89.7 °F 77.9 °F 89% 29.93 in 10.0 mi ESE 4.6 mph - N/A   Clear
6:15 AM 81.0 °F 88.4 °F 77.9 °F 90% 29.94 in 7.0 mi ESE 3.5 mph - N/A   Clear
6:35 AM 80.8 °F 88.0 °F 77.9 °F 91% 29.94 in 7.0 mi ESE 4.6 mph - N/A   Clear
6:55 AM 80.6 °F 87.5 °F 77.9 °F 91% 29.94 in 7.0 mi ESE 3.5 mph - N/A   Clear
7:15 AM 80.6 °F 87.5 °F 77.7 °F 91% 29.94 in 7.0 mi ESE 4.6 mph - N/A   Clear
7:35 AM 80.8 °F 88.0 °F 77.9 °F 91% 29.95 in 7.0 mi ESE 5.8 mph - N/A   Scattered Clouds
7:55 AM 81.5 °F 90.0 °F 78.3 °F 90% 29.95 in 7.0 mi ESE 5.8 mph - N/A   Scattered Clouds
8:15 AM 83.7 °F 94.9 °F 78.8 °F 85% 29.96 in 10.0 mi SE 8.1 mph - N/A   Clear
8:35 AM 85.3 °F 98.1 °F 78.8 °F 81% 29.96 in 10.0 mi SE 9.2 mph - N/A   Clear
8:55 AM 86.7 °F 100.4 °F 78.8 °F 77% 29.97 in 10.0 mi SSE 10.4 mph - N/A   Scattered Clouds
9:15 AM 88.0 °F 101.3 °F 77.9 °F 72% 29.97 in 10.0 mi South 11.5 mph - N/A   Scattered Clouds
9:35 AM 89.2 °F 101.2 °F 76.6 °F 66% 29.97 in 10.0 mi SSE 11.5 mph 16.1 mph N/A   Mostly Cloudy
9:55 AM 90.7 °F 103.2 °F 76.5 °F 63% 29.98 in 10.0 mi SSE 11.5 mph - N/A   Mostly Cloudy
10:15 AM 92.8 °F 105.5 °F 76.1 °F 58% 29.98 in 10.0 mi South 10.4 mph - N/A   Mostly Cloudy
10:35 AM 91.4 °F 101.9 °F 74.8 °F 58% 29.98 in 10.0 mi South 12.7 mph - N/A   Scattered Clouds
10:55 AM 93.9 °F 104.7 °F 74.3 °F 53% 29.97 in 10.0 mi South 10.4 mph - N/A   Clear
11:15 AM 95.7 °F 105.5 °F 73.2 °F 48% 29.98 in 10.0 mi South 11.5 mph 18.4 mph N/A   Clear
11:35 AM 97.0 °F 107.0 °F 73.0 °F 46% 29.97 in 10.0 mi SSE 15.0 mph - N/A   Scattered Clouds
11:55 AM 98.2 °F 108.4 °F 72.7 °F 44% 29.97 in 10.0 mi SE 11.5 mph 19.6 mph N/A   Scattered Clouds
12:15 PM 98.8 °F 107.3 °F 71.6 °F 41% 29.96 in 10.0 mi SE 15.0 mph 20.7 mph N/A   Scattered Clouds
12:35 PM 98.8 °F 108.1 °F 71.8 °F 42% 29.96 in 10.0 mi SE 12.7 mph 16.1 mph N/A   Scattered Clouds
12:55 PM 99.1 °F 108.1 °F 71.6 °F 41% 29.95 in 10.0 mi SSE 9.2 mph - N/A   Scattered Clouds
1:15 PM 100.0 °F 108.6 °F 70.9 °F 39% 29.94 in 10.0 mi SE 9.2 mph - N/A   Scattered Clouds
1:35 PM 99.7 °F 107.8 °F 70.7 °F 39% 29.93 in 10.0 mi SSE 12.7 mph 17.3 mph N/A   Scattered Clouds
1:55 PM 101.1 °F 108.5 °F 69.6 °F 36% 29.92 in 10.0 mi SE 9.2 mph 21.9 mph N/A   Scattered Clouds
2:15 PM 101.3 °F 107.4 °F 68.4 °F 34% 29.91 in 10.0 mi ESE 11.5 mph 18.4 mph N/A   Scattered Clouds
2:35 PM 101.5 °F 107.7 °F 68.2 °F 34% 29.91 in 10.0 mi ESE 9.2 mph - N/A   Scattered Clouds
2:55 PM 103.5 °F 108.6 °F 66.0 °F 30% 29.90 in 10.0 mi SE 9.2 mph 16.1 mph N/A   Scattered Clouds
3:15 PM 104.0 °F 109.6 °F 66.6 °F 30% 29.89 in 10.0 mi SSE 8.1 mph - N/A   Scattered Clouds
3:35 PM 102.7 °F 108.0 °F 66.6 °F 31% 29.88 in 10.0 mi SE 11.5 mph 16.1 mph N/A   Clear
3:55 PM 103.1 °F 115.6 °F 74.1 °F 39% 29.87 in 10.0 mi ESE 17.3 mph 24.2 mph N/A   Scattered Clouds
4:15 PM 102.9 °F 115.2 °F 73.9 °F 39% 29.86 in 10.0 mi ESE 16.1 mph 21.9 mph N/A   Scattered Clouds
4:35 PM 101.8 °F 115.4 °F 75.0 °F 42% 29.86 in 10.0 mi East 15.0 mph 24.2 mph N/A   Scattered Clouds
4:55 PM 101.7 °F 115.9 °F 75.2 °F 43% 29.86 in 10.0 mi ESE 17.3 mph 23.0 mph N/A   Clear
5:15 PM 100.6 °F 115.0 °F 75.4 °F 45% 29.86 in 10.0 mi ESE 16.1 mph 25.3 mph N/A   Clear
5:35 PM 100.2 °F 115.0 °F 75.9 °F 46% 29.86 in 10.0 mi ESE 17.3 mph 23.0 mph N/A   Clear
5:55 PM 99.3 °F 113.6 °F 75.7 °F 47% 29.86 in 10.0 mi ESE 15.0 mph 24.2 mph N/A   Clear
6:15 PM 98.8 °F 113.1 °F 75.7 °F 48% 29.86 in 10.0 mi ESE 19.6 mph 25.3 mph N/A   Clear
6:35 PM 97.9 °F 111.6 °F 75.6 °F 49% 29.86 in 10.0 mi ESE 17.3 mph 25.3 mph N/A   Clear
6:55 PM 97.0 °F 110.1 °F 75.6 °F 50% 29.86 in 10.0 mi ESE 17.3 mph 24.2 mph N/A   Clear
7:15 PM 95.9 °F 108.9 °F 75.6 °F 52% 29.86 in 10.0 mi ESE 13.8 mph 23.0 mph N/A   Clear
7:35 PM 94.3 °F 106.3 °F 75.2 °F 54% 29.86 in 10.0 mi ESE 16.1 mph 20.7 mph N/A   Clear
7:55 PM 93.0 °F 105.3 °F 75.7 °F 57% 29.87 in 10.0 mi ESE 13.8 mph - N/A   Clear
8:15 PM 91.6 °F 103.6 °F 76.1 °F 60% 29.87 in 10.0 mi ESE 13.8 mph 21.9 mph N/A   Clear
8:35 PM 90.5 °F 102.1 °F 76.1 °F 62% 29.88 in 10.0 mi ESE 10.4 mph 17.3 mph N/A   Clear
8:55 PM 89.8 °F 100.9 °F 75.7 °F 63% 29.88 in 10.0 mi ESE 11.5 mph 18.4 mph N/A   Clear
9:15 PM 89.1 °F 98.5 °F 74.7 °F 62% 29.88 in 10.0 mi SE 12.7 mph - N/A   Clear
9:35 PM 88.5 °F 97.3 °F 73.9 °F 62% 29.89 in 10.0 mi SE 11.5 mph - N/A   Clear
9:55 PM 87.8 °F 96.6 °F 74.3 °F 64% 29.89 in 10.0 mi SE 12.7 mph 18.4 mph N/A   Clear
10:15 PM 86.9 °F 96.4 °F 75.4 °F 68% 29.90 in 10.0 mi SE 12.7 mph - N/A   Clear
10:35 PM 86.4 °F 96.4 °F 76.1 °F 71% 29.91 in 10.0 mi SE 13.8 mph 20.7 mph N/A   Clear
10:55 PM 86.0 °F 96.4 °F 76.3 °F 73% 29.91 in 10.0 mi SE 11.5 mph 19.6 mph N/A   Clear
11:15 PM 85.5 °F 95.9 °F 76.6 °F 75% 29.92 in 10.0 mi SSE 11.5 mph 16.1 mph N/A   Clear
11:35 PM 85.3 °F 95.8 °F 77.0 °F 76% 29.93 in 10.0 mi SSE 10.4 mph - N/A   Clear
11:55 PM 85.1 °F 95.8 °F 77.0 °F 77% 29.93 in 10.0 mi SSE 11.5 mph - N/A   Clear